createdAt,value
2022-09-21T00:01:12.381Z,6.86
2022-09-21T00:03:41.556Z,6.91
2022-09-21T00:06:10.984Z,6.89
2022-09-21T00:08:38.032Z,6.86
2022-09-21T00:11:05.818Z,6.92
2022-09-21T00:13:33.718Z,6.90
2022-09-21T00:16:01.088Z,6.89
2022-09-21T00:18:27.918Z,6.88
2022-09-21T00:20:54.598Z,6.81
2022-09-21T00:23:21.248Z,6.73
2022-09-21T00:25:47.926Z,6.71
2022-09-21T00:28:14.543Z,6.64
2022-09-21T00:30:41.847Z,6.67
2022-09-21T00:33:08.293Z,6.72
2022-09-21T00:35:34.828Z,6.73
2022-09-21T00:38:03.404Z,6.74
2022-09-21T00:40:30.855Z,6.70
2022-09-21T00:43:14.974Z,6.73
2022-09-21T00:45:43.211Z,6.70
2022-09-21T00:48:10.218Z,6.66
2022-09-21T00:50:42.852Z,6.61
2022-09-21T00:53:09.629Z,6.58
2022-09-21T00:55:42.322Z,6.53
2022-09-21T00:58:15.838Z,6.51
2022-09-21T01:00:43.090Z,6.55
2022-09-21T01:03:12.034Z,6.61
2022-09-21T01:05:38.809Z,6.56
2022-09-21T01:08:07.928Z,6.56
2022-09-21T01:10:57.041Z,6.63
2022-09-21T01:13:52.570Z,6.70
2022-09-21T01:16:35.270Z,6.62
2022-09-21T01:19:50.108Z,6.55
2022-09-21T01:22:38.524Z,6.55
2022-09-21T01:25:35.730Z,6.45
2022-09-21T01:28:37.067Z,6.46
2022-09-21T01:31:07.342Z,6.47
2022-09-21T01:33:40.149Z,6.47
2022-09-21T01:36:12.811Z,6.44
2022-09-21T01:38:45.444Z,6.46
2022-09-21T01:41:16.518Z,6.41
2022-09-21T01:43:48.706Z,6.50
2022-09-21T01:46:21.500Z,6.46
2022-09-21T01:48:52.286Z,6.40
2022-09-21T01:51:21.941Z,6.35
2022-09-21T01:54:02.942Z,6.29
2022-09-21T01:56:59.641Z,6.22
2022-09-21T01:59:35.386Z,6.22
2022-09-21T02:02:11.766Z,6.15
2022-09-21T02:04:39.867Z,6.13
2022-09-21T02:07:07.671Z,6.12
2022-09-21T02:09:36.764Z,6.05
2022-09-21T02:12:05.061Z,6.08
2022-09-21T02:14:33.722Z,5.97
2022-09-21T02:17:23.893Z,5.94
2022-09-21T02:20:03.224Z,5.94
2022-09-21T02:22:57.525Z,5.90
2022-09-21T02:25:41.622Z,5.90
2022-09-21T02:28:29.729Z,6.00
2022-09-21T02:31:14.641Z,6.01
2022-09-21T02:33:59.657Z,6.00
2022-09-21T02:36:35.759Z,6.01
2022-09-21T02:39:15.995Z,6.03
2022-09-21T02:41:54.890Z,6.00
2022-09-21T02:44:33.825Z,6.01
2022-09-21T02:47:14.984Z,6.06
2022-09-21T02:49:47.173Z,6.06
2022-09-21T02:52:16.572Z,6.04
2022-09-21T02:54:47.854Z,6.01
2022-09-21T02:57:17.132Z,6.00
2022-09-21T02:59:44.569Z,5.99
2022-09-21T03:02:12.709Z,5.99
2022-09-21T03:04:41.421Z,6.02
2022-09-21T03:07:09.251Z,5.96
2022-09-21T03:09:36.486Z,5.96
2022-09-21T03:12:03.176Z,5.95
2022-09-21T03:14:29.876Z,5.93
2022-09-21T03:16:56.410Z,5.89
2022-09-21T03:19:22.998Z,5.88
2022-09-21T03:21:49.554Z,5.85
2022-09-21T03:24:36.094Z,5.84
2022-09-21T03:27:02.691Z,5.79
2022-09-21T03:29:29.284Z,5.78
2022-09-21T03:31:56.152Z,5.78
2022-09-21T03:34:23.093Z,5.80
2022-09-21T03:36:49.747Z,5.76
2022-09-21T03:39:16.313Z,5.79
2022-09-21T03:41:42.768Z,5.81
2022-09-21T03:44:09.358Z,5.82
2022-09-21T03:46:35.850Z,5.79
2022-09-21T03:49:03.200Z,5.81
2022-09-21T03:51:31.673Z,5.83
2022-09-21T03:53:58.335Z,5.83
2022-09-21T03:56:24.938Z,5.84
2022-09-21T03:58:51.562Z,5.89
2022-09-21T04:01:18.211Z,6.01
2022-09-21T04:03:44.804Z,5.94
2022-09-21T04:06:12.612Z,5.96
2022-09-21T04:08:39.664Z,5.96
2022-09-21T04:11:22.644Z,5.96
2022-09-21T04:13:57.072Z,5.93
2022-09-21T04:16:27.832Z,5.91
2022-09-21T04:18:54.541Z,5.88
2022-09-21T04:21:22.447Z,5.82
2022-09-21T04:23:50.043Z,5.74
2022-09-21T04:26:32.855Z,5.74
2022-09-21T04:28:59.926Z,5.78
2022-09-21T04:31:28.310Z,5.79
2022-09-21T04:33:57.293Z,5.78
2022-09-21T04:36:25.471Z,5.80
2022-09-21T04:38:52.129Z,5.75
2022-09-21T04:41:19.078Z,5.84
2022-09-21T04:43:47.062Z,5.88
2022-09-21T04:46:16.181Z,5.87
2022-09-21T04:48:43.493Z,5.81
2022-09-21T04:51:10.961Z,5.80
2022-09-21T04:53:39.837Z,5.79
2022-09-21T04:56:07.889Z,5.84
2022-09-21T04:58:34.961Z,5.81
2022-09-21T05:01:02.136Z,5.79
2022-09-21T05:03:28.796Z,5.82
2022-09-21T05:05:56.962Z,5.81
2022-09-21T05:08:43.952Z,5.89
2022-09-21T05:11:14.189Z,5.94
2022-09-21T05:13:40.880Z,5.87
2022-09-21T05:16:07.678Z,5.80
2022-09-21T05:18:34.586Z,5.85
2022-09-21T05:21:02.466Z,5.81
2022-09-21T05:23:31.211Z,5.85
2022-09-21T05:25:59.190Z,5.89
2022-09-21T05:28:26.968Z,5.97
2022-09-21T05:31:18.852Z,6.06
2022-09-21T05:33:54.133Z,6.04
2022-09-21T05:36:33.576Z,6.10
2022-09-21T05:39:00.335Z,6.13
2022-09-21T05:41:27.065Z,6.23
2022-09-21T05:43:53.986Z,6.30
2022-09-21T05:46:35.878Z,6.37
2022-09-21T05:49:20.288Z,6.47
2022-09-21T05:52:01.618Z,6.53
2022-09-21T05:54:38.133Z,6.60
2022-09-21T05:57:13.862Z,6.66
2022-09-21T05:59:54.202Z,6.69
2022-09-21T06:03:05.006Z,6.82
2022-09-21T06:05:31.665Z,6.91
2022-09-21T06:07:58.332Z,7.00
2022-09-21T06:10:25.546Z,7.11
2022-09-21T06:12:52.045Z,7.26
2022-09-21T06:15:18.677Z,7.43
2022-09-21T06:17:45.301Z,7.62
2022-09-21T06:20:11.899Z,7.78
2022-09-21T06:22:38.475Z,7.96
2022-09-21T06:25:05.442Z,8.15
2022-09-21T06:27:31.928Z,8.32
2022-09-21T06:29:58.704Z,8.48
2022-09-21T06:32:25.254Z,8.64
2022-09-21T06:34:51.974Z,8.75
2022-09-21T06:37:18.601Z,8.91
2022-09-21T06:39:45.201Z,9.16
2022-09-21T06:42:11.934Z,9.38
2022-09-21T06:44:38.463Z,9.54
2022-09-21T06:47:05.141Z,9.76
2022-09-21T06:49:32.147Z,9.91
2022-09-21T06:51:58.737Z,10.06
2022-09-21T06:54:25.911Z,10.32
2022-09-21T06:56:54.870Z,10.59
2022-09-21T06:59:23.524Z,10.95
2022-09-21T07:01:50.228Z,11.09
2022-09-21T07:04:17.010Z,11.25
2022-09-21T07:06:43.561Z,11.28
2022-09-21T07:11:58.351Z,11.57
2022-09-21T07:14:25.072Z,11.55
2022-09-21T07:16:53.140Z,11.39
2022-09-21T07:19:19.770Z,11.55
2022-09-21T07:21:46.442Z,11.80
2022-09-21T07:24:13.096Z,12.15
2022-09-21T07:26:40.657Z,12.19
2022-09-21T07:29:07.338Z,12.55
2022-09-21T07:31:34.045Z,12.82
2022-09-21T07:34:00.704Z,13.02
2022-09-21T07:36:27.429Z,13.11
2022-09-21T07:38:54.293Z,13.61
2022-09-21T07:41:21.504Z,14.00
2022-09-21T07:43:48.063Z,14.12
2022-09-21T07:46:15.638Z,14.37
2022-09-21T07:48:42.597Z,14.63
2022-09-21T07:51:14.080Z,14.77
2022-09-21T07:53:44.234Z,14.99
2022-09-21T07:56:16.376Z,14.90
2022-09-21T07:59:02.106Z,14.51
2022-09-21T08:01:29.567Z,14.70
2022-09-21T08:03:57.926Z,14.36
2022-09-21T08:06:27.226Z,14.49
2022-09-21T08:08:57.702Z,14.44
2022-09-21T08:11:26.155Z,15.07
2022-09-21T08:13:54.659Z,15.44
2022-09-21T08:16:21.445Z,15.65
2022-09-21T08:18:48.061Z,15.75
2022-09-21T08:21:15.329Z,16.24
2022-09-21T08:23:42.897Z,16.35
2022-09-21T08:26:18.965Z,16.14
2022-09-21T08:28:49.992Z,16.57
2022-09-21T08:31:19.588Z,17.01
2022-09-21T08:33:50.123Z,17.47
2022-09-21T08:36:18.524Z,17.81
2022-09-21T08:38:45.999Z,17.53
2022-09-21T08:41:36.167Z,17.27
2022-09-21T08:44:14.263Z,17.49
2022-09-21T08:46:43.494Z,17.17
2022-09-21T08:49:18.971Z,17.36
2022-09-21T08:51:54.526Z,17.48
2022-09-21T08:54:28.768Z,18.28
2022-09-21T08:57:11.763Z,18.70
2022-09-21T08:59:41.956Z,18.34
2022-09-21T09:02:33.822Z,18.75
2022-09-21T09:05:04.434Z,19.14
2022-09-21T09:07:52.613Z,19.04
2022-09-21T09:10:28.171Z,19.01
2022-09-21T09:13:07.013Z,18.80
2022-09-21T09:15:58.017Z,19.16
2022-09-21T09:18:45.871Z,18.63
2022-09-21T09:21:35.654Z,19.12
2022-09-21T09:24:21.854Z,19.20
2022-09-21T09:26:56.972Z,19.07
2022-09-21T09:29:35.201Z,19.58
2022-09-21T09:32:02.250Z,20.04
2022-09-21T09:34:34.353Z,20.45
2022-09-21T09:37:16.461Z,20.17
2022-09-21T09:39:54.274Z,20.02
2022-09-21T09:42:39.558Z,20.03
2022-09-21T09:45:31.839Z,19.62
2022-09-21T09:48:12.240Z,19.83
2022-09-21T09:50:41.127Z,19.85
2022-09-21T09:53:14.426Z,20.16
2022-09-21T09:55:44.249Z,20.13
2022-09-21T09:58:37.207Z,20.24
2022-09-21T10:01:04.506Z,20.06
2022-09-21T10:03:31.109Z,20.38
2022-09-21T10:05:58.049Z,20.60
2022-09-21T10:08:30.607Z,20.75
2022-09-21T10:10:57.846Z,20.72
2022-09-21T10:13:33.336Z,19.79
2022-09-21T10:16:03.023Z,20.21
2022-09-21T10:18:46.050Z,20.61
2022-09-21T10:21:23.653Z,20.96
2022-09-21T10:23:58.404Z,20.68
2022-09-21T10:26:32.101Z,19.99
2022-09-21T10:29:17.649Z,19.67
2022-09-21T10:32:01.162Z,19.31
2022-09-21T10:34:35.809Z,19.59
2022-09-21T10:37:23.803Z,19.64
2022-09-21T10:39:50.369Z,20.39
2022-09-21T10:42:19.665Z,21.13
2022-09-21T10:44:50.586Z,21.33
2022-09-21T10:47:35.715Z,21.31
2022-09-21T10:50:07.251Z,21.22
2022-09-21T10:52:41.644Z,21.32
2022-09-21T10:55:17.141Z,21.43
2022-09-21T10:57:45.392Z,21.65
2022-09-21T11:00:21.450Z,21.73
2022-09-21T11:02:48.711Z,22.00
2022-09-21T11:05:27.713Z,22.46
2022-09-21T11:08:03.085Z,22.20
2022-09-21T11:10:43.914Z,21.53
2022-09-21T11:13:28.390Z,21.22
2022-09-21T11:16:01.655Z,21.37
2022-09-21T11:18:46.877Z,21.54
2022-09-21T11:21:32.250Z,20.76
2022-09-21T11:24:28.824Z,19.96
2022-09-21T11:27:11.216Z,19.13
2022-09-21T11:30:03.930Z,18.66
2022-09-21T11:33:07.547Z,19.59
2022-09-21T11:35:45.969Z,20.31
2022-09-21T11:38:21.571Z,20.97
2022-09-21T11:41:09.222Z,20.97
2022-09-21T11:43:59.962Z,21.17
2022-09-21T11:46:52.298Z,20.82
2022-09-21T11:49:21.645Z,19.97
2022-09-21T11:52:31.393Z,20.67
2022-09-21T11:55:13.838Z,19.84
2022-09-21T11:57:52.797Z,18.92
2022-09-21T12:00:23.004Z,18.63
2022-09-21T12:03:45.604Z,19.04
2022-09-21T12:06:35.507Z,18.89
2022-09-21T12:09:07.775Z,18.72
2022-09-21T12:11:48.745Z,19.35
2022-09-21T12:14:50.360Z,20.01
2022-09-21T12:17:34.670Z,19.69
2022-09-21T12:20:23.841Z,19.27
2022-09-21T12:22:57.744Z,19.75
2022-09-21T12:25:31.869Z,19.48
2022-09-21T12:28:07.248Z,19.72
2022-09-21T12:30:34.788Z,19.72
2022-09-21T12:33:20.788Z,20.13
2022-09-21T12:35:54.144Z,19.88
2022-09-21T12:38:30.294Z,19.70
2022-09-21T12:41:16.103Z,19.40
2022-09-21T12:43:56.782Z,19.56
2022-09-21T12:46:30.609Z,19.73
2022-09-21T12:49:00.599Z,19.49
2022-09-21T12:51:44.248Z,18.89
2022-09-21T12:54:25.954Z,18.79
2022-09-21T12:57:23.497Z,19.18
2022-09-21T13:00:06.582Z,19.12
2022-09-21T13:03:17.820Z,19.07
2022-09-21T13:06:09.106Z,19.15
2022-09-21T13:08:41.095Z,19.22
2022-09-21T13:11:09.026Z,19.00
2022-09-21T13:13:44.077Z,19.11
2022-09-21T13:16:26.909Z,19.05
2022-09-21T13:19:19.574Z,19.43
2022-09-21T13:21:46.360Z,19.51
2022-09-21T13:24:30.713Z,19.16
2022-09-21T13:27:07.406Z,18.66
2022-09-21T13:29:36.701Z,18.78
2022-09-21T13:32:20.522Z,18.66
2022-09-21T13:34:48.368Z,18.40
2022-09-21T13:37:27.762Z,18.30
2022-09-21T13:40:04.103Z,17.74
2022-09-21T13:42:34.426Z,17.58
2022-09-21T13:45:18.489Z,17.53
2022-09-21T13:47:52.875Z,17.46
2022-09-21T13:50:34.381Z,17.38
2022-09-21T13:53:23.692Z,17.27
2022-09-21T13:55:54.194Z,17.20
2022-09-21T13:58:45.073Z,17.24
2022-09-21T14:01:47.623Z,16.87
2022-09-21T14:04:30.073Z,17.01
2022-09-21T14:06:58.033Z,16.82
2022-09-21T14:09:31.780Z,16.95
2022-09-21T14:12:03.368Z,16.90
2022-09-21T14:14:37.384Z,16.94
2022-09-21T14:17:49.172Z,16.83
2022-09-21T14:20:37.213Z,16.83
2022-09-21T14:23:14.762Z,16.74
2022-09-21T14:25:56.780Z,16.78
2022-09-21T14:28:43.651Z,16.70
2022-09-21T14:31:21.818Z,16.76
2022-09-21T14:33:55.289Z,16.64
2022-09-21T14:36:47.482Z,16.71
2022-09-21T14:39:22.151Z,16.62
2022-09-21T14:41:51.611Z,16.53
2022-09-21T14:44:21.584Z,16.56
2022-09-21T14:47:05.441Z,16.52
2022-09-21T14:49:50.065Z,16.57
2022-09-21T14:52:54.481Z,16.60
2022-09-21T14:55:42.834Z,16.43
2022-09-21T14:58:29.733Z,16.25
2022-09-21T15:00:58.322Z,16.07
2022-09-21T15:03:41.973Z,16.11
2022-09-21T15:06:48.952Z,16.09
2022-09-21T15:09:49.309Z,16.15
2022-09-21T15:12:20.104Z,15.91
2022-09-21T15:14:57.673Z,16.01
2022-09-21T15:17:27.222Z,15.97
2022-09-21T15:20:15.216Z,15.78
2022-09-21T15:22:44.892Z,15.76
2022-09-21T15:25:15.559Z,15.74
2022-09-21T15:27:46.029Z,15.81
2022-09-21T15:30:25.319Z,15.73
2022-09-21T15:32:55.797Z,15.60
2022-09-21T15:35:24.736Z,15.53
2022-09-21T15:37:52.075Z,15.64
2022-09-21T15:40:18.688Z,15.63
2022-09-21T15:43:01.774Z,15.56
2022-09-21T15:45:34.041Z,15.48
2022-09-21T15:48:01.131Z,15.35
2022-09-21T15:50:29.610Z,15.33
2022-09-21T15:53:10.438Z,15.35
2022-09-21T15:55:37.015Z,15.30
2022-09-21T15:58:18.878Z,15.33
2022-09-21T16:00:55.035Z,15.30
2022-09-21T16:03:24.576Z,15.32
2022-09-21T16:05:56.592Z,15.32
2022-09-21T16:08:33.718Z,15.26
2022-09-21T16:11:14.259Z,15.31
2022-09-21T16:14:00.762Z,15.37
2022-09-21T16:16:27.492Z,15.34
2022-09-21T16:18:56.494Z,15.33
2022-09-21T16:21:32.790Z,15.23
2022-09-21T16:24:19.037Z,15.16
2022-09-21T16:27:01.023Z,15.19
2022-09-21T16:29:38.709Z,15.06
2022-09-21T16:32:27.525Z,15.01
2022-09-21T16:35:22.089Z,14.92
2022-09-21T16:37:49.169Z,14.82
2022-09-21T16:40:15.801Z,14.88
2022-09-21T16:42:46.192Z,14.84
2022-09-21T16:45:23.770Z,14.83
2022-09-21T16:47:51.102Z,14.79
2022-09-21T16:50:19.054Z,14.74
2022-09-21T16:52:48.787Z,14.69
2022-09-21T16:55:18.254Z,14.62
2022-09-21T16:57:46.156Z,14.52
2022-09-21T17:00:14.335Z,14.43
2022-09-21T17:02:42.790Z,14.29
2022-09-21T17:05:09.840Z,14.15
2022-09-21T17:07:36.538Z,14.03
2022-09-21T17:10:12.898Z,13.88
2022-09-21T17:12:39.535Z,13.51
2022-09-21T17:15:08.288Z,13.41
2022-09-21T17:17:34.930Z,13.29
2022-09-21T17:20:07.168Z,13.22
2022-09-21T17:22:33.751Z,13.20
2022-09-21T17:25:00.353Z,13.16
2022-09-21T17:27:29.267Z,13.07
2022-09-21T17:29:56.632Z,12.86
2022-09-21T17:32:24.637Z,12.61
2022-09-21T17:35:01.851Z,12.51
2022-09-21T17:37:29.444Z,12.23
2022-09-21T17:39:56.011Z,12.03
2022-09-21T17:42:24.824Z,12.03
2022-09-21T17:45:06.819Z,11.89
2022-09-21T17:47:34.148Z,11.89
2022-09-21T17:50:12.870Z,11.78
2022-09-21T17:52:59.635Z,11.60
2022-09-21T17:55:27.009Z,11.43
2022-09-21T17:58:29.009Z,11.29
2022-09-21T18:01:10.241Z,11.12
2022-09-21T18:03:42.020Z,10.98
2022-09-21T18:06:10.009Z,11.03
2022-09-21T18:08:38.375Z,11.02
2022-09-21T18:11:36.462Z,10.98
2022-09-21T18:14:25.275Z,10.94
2022-09-21T18:17:16.653Z,10.90
2022-09-21T18:20:06.560Z,11.01
2022-09-21T18:22:57.453Z,10.99
2022-09-21T18:25:36.263Z,10.97
2022-09-21T18:28:12.853Z,10.92
2022-09-21T18:30:46.409Z,10.76
2022-09-21T18:33:25.142Z,10.72
2022-09-21T18:36:08.403Z,10.67
2022-09-21T18:38:45.390Z,10.62
2022-09-21T18:41:18.076Z,10.60
2022-09-21T18:43:50.639Z,10.58
2022-09-21T18:46:23.673Z,10.42
2022-09-21T18:49:10.025Z,10.27
2022-09-21T18:52:16.132Z,10.06
2022-09-21T18:54:43.383Z,9.93
2022-09-21T18:57:12.939Z,9.81
2022-09-21T18:59:40.522Z,9.77
2022-09-21T19:02:12.583Z,9.72
2022-09-21T19:04:40.130Z,9.76
2022-09-21T19:07:20.079Z,9.64
2022-09-21T19:10:04.116Z,9.59
2022-09-21T19:12:42.748Z,9.50
2022-09-21T19:15:59.138Z,9.50
2022-09-21T19:18:59.023Z,9.43
2022-09-21T19:21:54.410Z,9.45
2022-09-21T19:24:58.450Z,9.39
2022-09-21T19:27:34.474Z,9.39
2022-09-21T19:30:16.178Z,9.40
2022-09-21T19:32:45.863Z,9.33
2022-09-21T19:35:17.861Z,9.24
2022-09-21T19:37:45.068Z,9.17
2022-09-21T19:40:11.989Z,9.14
2022-09-21T19:42:59.606Z,9.08
2022-09-21T19:45:50.569Z,9.11
2022-09-21T19:48:18.925Z,9.11
2022-09-21T19:50:53.325Z,9.21
2022-09-21T19:53:39.624Z,9.15
2022-09-21T19:56:30.303Z,9.15
2022-09-21T19:59:15.949Z,9.18
2022-09-21T20:01:52.561Z,9.20
2022-09-21T20:04:46.166Z,9.25
2022-09-21T20:07:29.444Z,9.15
2022-09-21T20:10:08.605Z,9.11
2022-09-21T20:12:46.688Z,9.11
2022-09-21T20:15:22.025Z,9.00
2022-09-21T20:17:53.614Z,9.04
2022-09-21T20:20:24.143Z,9.05
2022-09-21T20:22:51.439Z,9.06
2022-09-21T20:25:21.812Z,8.94
2022-09-21T20:27:56.548Z,8.95
2022-09-21T20:30:31.803Z,8.99
2022-09-21T20:33:02.468Z,8.96
2022-09-21T20:35:30.939Z,8.90
2022-09-21T20:38:02.289Z,8.90
2022-09-21T20:40:30.241Z,8.98
2022-09-21T20:42:58.341Z,8.91
2022-09-21T20:45:25.372Z,8.83
2022-09-21T20:47:53.412Z,8.88
2022-09-21T20:50:20.718Z,8.88
2022-09-21T20:52:48.120Z,8.88
2022-09-21T20:55:18.509Z,8.84
2022-09-21T20:57:45.012Z,8.84
2022-09-21T21:00:16.573Z,8.77
2022-09-21T21:02:43.781Z,8.82
2022-09-21T21:05:11.540Z,8.75
2022-09-21T21:07:38.098Z,8.68
2022-09-21T21:10:05.031Z,8.62
2022-09-21T21:12:32.520Z,8.58
2022-09-21T21:14:59.293Z,8.55
2022-09-21T21:17:26.188Z,8.54
2022-09-21T21:19:52.778Z,8.46
2022-09-21T21:22:19.450Z,8.47
2022-09-21T21:24:46.134Z,8.40
2022-09-21T21:27:21.237Z,8.45
2022-09-21T21:29:50.439Z,8.45
2022-09-21T21:32:18.831Z,8.48
2022-09-21T21:34:45.812Z,8.48
2022-09-21T21:37:13.750Z,8.34
2022-09-21T21:39:40.563Z,8.32
2022-09-21T21:42:07.341Z,8.28
2022-09-21T21:44:34.024Z,8.17
2022-09-21T21:47:20.922Z,8.22
2022-09-21T21:49:47.838Z,8.13
2022-09-21T21:52:14.800Z,8.11
2022-09-21T21:54:41.836Z,8.05
2022-09-21T21:57:10.228Z,8.04
2022-09-21T21:59:36.896Z,8.10
2022-09-21T22:02:03.590Z,8.02
2022-09-21T22:04:30.344Z,8.02
2022-09-21T22:06:57.022Z,7.99
2022-09-21T22:09:23.636Z,7.97
2022-09-21T22:11:51.013Z,7.91
2022-09-21T22:14:18.529Z,7.90
2022-09-21T22:16:45.312Z,7.81
2022-09-21T22:19:12.132Z,7.82
2022-09-21T22:21:41.837Z,7.72
2022-09-21T22:24:09.937Z,7.64
2022-09-21T22:26:48.754Z,7.63
2022-09-21T22:29:16.934Z,7.56
2022-09-21T22:31:47.198Z,7.61
2022-09-21T22:34:15.008Z,7.62
2022-09-21T22:36:43.918Z,7.63
2022-09-21T22:39:11.608Z,7.63
2022-09-21T22:41:40.812Z,7.53
2022-09-21T22:44:08.132Z,7.47
2022-09-21T22:46:35.279Z,7.47
2022-09-21T22:49:02.445Z,7.38
2022-09-21T22:51:29.934Z,7.24
2022-09-21T22:53:57.829Z,7.14
2022-09-21T22:56:32.357Z,7.07
2022-09-21T22:59:01.103Z,6.93
2022-09-21T23:01:30.599Z,7.00
2022-09-21T23:03:59.938Z,7.00
2022-09-21T23:06:29.855Z,7.03
2022-09-21T23:08:57.750Z,7.07
2022-09-21T23:11:27.367Z,7.06
2022-09-21T23:13:55.442Z,7.22
2022-09-21T23:16:23.617Z,7.14
2022-09-21T23:18:50.748Z,7.05
2022-09-21T23:21:19.844Z,7.01
2022-09-21T23:23:46.740Z,7.00
2022-09-21T23:26:16.262Z,7.03
2022-09-21T23:28:45.756Z,7.01
2022-09-21T23:31:15.080Z,7.00
2022-09-21T23:33:44.523Z,7.02
2022-09-21T23:36:13.224Z,6.96
2022-09-21T23:38:41.281Z,6.91
2022-09-21T23:41:28.833Z,6.93
2022-09-21T23:43:56.154Z,6.79
2022-09-21T23:46:26.122Z,6.72
2022-09-21T23:48:52.977Z,6.71
2022-09-21T23:51:20.151Z,6.70
2022-09-21T23:53:47.637Z,6.72
2022-09-21T23:56:17.325Z,6.71
2022-09-21T23:58:44.503Z,6.71
